地図

経路データ

SID SEASON NUMBER BASIN SUBBASIN NAME ISO_TIME NATURE LAT LON WMO_WIND WMO_PRES WMO_AGENCY TRACK_TYPE DIST2LAND LANDFALL IFLAG USA_AGENCY USA_ATCF_ID USA_LAT USA_LON USA_RECORD USA_STATUS USA_WIND USA_PRES USA_SSHS USA_R34_NE USA_R34_SE USA_R34_SW USA_R34_NW USA_R50_NE USA_R50_SE USA_R50_SW USA_R50_NW USA_R64_NE USA_R64_SE USA_R64_SW USA_R64_NW USA_POCI USA_ROCI USA_RMW USA_EYE TOKYO_LAT TOKYO_LON TOKYO_GRADE TOKYO_WIND TOKYO_PRES TOKYO_R50_DIR TOKYO_R50_LONG TOKYO_R50_SHORT TOKYO_R30_DIR TOKYO_R30_LONG TOKYO_R30_SHORT TOKYO_LAND CMA_LAT CMA_LON CMA_CAT CMA_WIND CMA_PRES HKO_LAT HKO_LON HKO_CAT HKO_WIND HKO_PRES NEWDELHI_LAT NEWDELHI_LON NEWDELHI_GRADE NEWDELHI_WIND NEWDELHI_PRES NEWDELHI_CI NEWDELHI_DP NEWDELHI_POCI REUNION_LAT REUNION_LON REUNION_TYPE REUNION_WIND REUNION_PRES REUNION_TNUM REUNION_CI REUNION_RMW REUNION_R34_NE REUNION_R34_SE REUNION_R34_SW REUNION_R34_NW REUNION_R50_NE REUNION_R50_SE REUNION_R50_SW REUNION_R50_NW REUNION_R64_NE REUNION_R64_SE REUNION_R64_SW REUNION_R64_NW BOM_LAT BOM_LON BOM_TYPE BOM_WIND BOM_PRES BOM_TNUM BOM_CI BOM_RMW BOM_R34_NE BOM_R34_SE BOM_R34_SW BOM_R34_NW BOM_R50_NE BOM_R50_SE BOM_R50_SW BOM_R50_NW BOM_R64_NE BOM_R64_SE BOM_R64_SW BOM_R64_NW BOM_ROCI BOM_POCI BOM_EYE BOM_POS_METHOD BOM_PRES_METHOD NADI_LAT NADI_LON NADI_CAT NADI_WIND NADI_PRES WELLINGTON_LAT WELLINGTON_LON WELLINGTON_WIND WELLINGTON_PRES DS824_LAT DS824_LON DS824_STAGE DS824_WIND DS824_PRES TD9636_LAT TD9636_LON TD9636_STAGE TD9636_WIND TD9636_PRES TD9635_LAT TD9635_LON TD9635_WIND TD9635_PRES TD9635_ROCI NEUMANN_LAT NEUMANN_LON NEUMANN_CLASS NEUMANN_WIND NEUMANN_PRES MLC_LAT MLC_LON MLC_CLASS MLC_WIND MLC_PRES USA_GUST BOM_GUST BOM_GUST_PER REUNION_GUST REUNION_GUST_PER USA_SEAHGT USA_SEARAD_NE USA_SEARAD_SE USA_SEARAD_SW USA_SEARAD_NW STORM_SPEED STORM_DIR
1861021S13446 1861 4 SI MM NOT_NAMED 1861-01-21 06:00:00 NR -13.2000 85.8000 spur-split 1934 1934 __________O___ -1 -13.2000 85.8000 7 15 250
1861021S13446 1861 4 SI MM NOT_NAMED 1861-01-21 09:00:00 NR -13.4483 85.0963 spur-split 2006 2006 __________P___ -1 -13.4483 85.0963 7 15 250
1861021S13446 1861 4 SI MM NOT_NAMED 1861-01-21 12:00:00 NR -13.6965 84.3935 spur-split 2086 2086 __________P___ -1 -13.6965 84.3935 7 15 250
1861021S13446 1861 4 SI MM NOT_NAMED 1861-01-21 15:00:00 NR -13.9464 83.6939 spur-split 2159 2159 __________P___ -1 -13.9464 83.6939 7 14 250
1861021S13446 1861 4 SI MM NOT_NAMED 1861-01-21 18:00:00 NR -14.2000 83.0000 spur-split 2240 2240 __________O___ -1 -14.2000 83.0000 7 14 249
1861021S13446 1861 4 SI MM NOT_NAMED 1861-01-21 21:00:00 NR -14.4593 82.3150 spur-split 2293 2291 __________P___ -1 -14.4593 82.3150 7 14 248
1861021S13446 1861 4 SI MM NOT_NAMED 1861-01-22 00:00:00 NR -14.7271 81.6470 spur-split 2310 2310 __________P___ -1 -14.7271 81.6470 7 14 247
1861021S13446 1861 4 SI MM NOT_NAMED 1861-01-22 03:00:00 NR -15.0063 81.0055 spur-split 2341 2341 __________P___ -1 -15.0063 81.0055 7 13 245
1861021S13446 1861 4 SI MM NOT_NAMED 1861-01-22 06:00:00 NR -15.3000 80.4000 spur-split 2375 2375 __________O___ -1 -15.3000 80.4000 7 13 242
1861021S13446 1861 4 SI MM NOT_NAMED 1861-01-22 09:00:00 NR -15.6100 79.8265 spur-split 2384 2323 __________P___ -1 -15.6100 79.8265 7 12 239
1861021S13446 1861 4 SI MM NOT_NAMED 1861-01-22 12:00:00 NR -15.9342 79.2896 spur-split 2323 2263 __________P___ -1 -15.9342 79.2896 7 12 237
1861021S13446 1861 4 SI MM NOT_NAMED 1861-01-22 15:00:00 NR -16.2664 78.7828 spur-split 2260 2200 __________P___ -1 -16.2664 78.7828 7 12 235
1861021S13446 1861 4 SI MM NOT_NAMED 1861-01-22 18:00:00 NR -16.6000 78.3000 spur-split 2200 2150 __________O___ -1 -16.6000 78.3000 7 11 234
1861021S13446 1861 4 SI MM NOT_NAMED 1861-01-22 21:00:00 NR -16.8870 77.8789 spur-split 2150 2101 __________P___ -1 -16.8870 77.8789 7 10 234
1861021S13446 1861 4 SI MM NOT_NAMED 1861-01-23 00:00:00 NR -17.1802 77.4712 spur-split 2101 2053 __________P___ -1 -17.1802 77.4712 7 10 233
1861021S13446 1861 4 SI MM NOT_NAMED 1861-01-23 03:00:00 NR -17.5085 77.0282 spur-split 2042 1982 __________P___ -1 -17.5085 77.0282 7 12 232
1861021S13446 1861 4 SI MM NOT_NAMED 1861-01-23 06:00:00 NR -17.9000 76.5000 spur-split 1982 1899 __________O___ -1 -17.9000 76.5000 7 15 233
1861021S13446 1861 4 SI MM NOT_NAMED 1861-01-23 09:00:00 NR -18.3988 75.7958 spur-split 1899 1818 __________P___ -1 -18.3988 75.7958 7 18 233
1861021S13446 1861 4 SI MM NOT_NAMED 1861-01-23 12:00:00 NR -18.9569 75.0049 spur-split 1806 1716 __________P___ -1 -18.9569 75.0049 7 19 233
1861021S13446 1861 4 SI MM NOT_NAMED 1861-01-23 15:00:00 NR -19.5363 74.1861 spur-split 1716 1627 __________P___ -1 -19.5363 74.1861 7 19 233
1861021S13446 1861 4 SI MM NOT_NAMED 1861-01-23 18:00:00 NR -20.1000 73.4000 spur-split 1627 1552 __________O___ -1 -20.1000 73.4000 7 18 232
1861021S13446 1861 4 SI MM NOT_NAMED 1861-01-23 21:00:00 NR -20.6532 72.6555 spur-split 1551 1479 __________P___ -1 -20.6532 72.6555 7 17 231
1861021S13446 1861 4 SI MM NOT_NAMED 1861-01-24 00:00:00 NR -21.1776 71.9640 spur-split 1479 1419 __________P___ -1 -21.1776 71.9640 7 16 231
1861021S13446 1861 4 SI MM NOT_NAMED 1861-01-24 03:00:00 NR -21.6380 71.3652 spur-split 1419 1371 __________P___ -1 -21.6380 71.3652 7 13 230
1861021S13446 1861 4 SI MM NOT_NAMED 1861-01-24 06:00:00 NR -22.0000 70.9000 spur-split 1371 1342 __________O___ -1 -22.0000 70.9000 7 9 230
1861021S13446 1861 4 SI MM NOT_NAMED 1861-01-24 09:00:00 NR -22.2241 70.6069 spur-split 1342 1333 __________P___ -1 -22.2241 70.6069 7 5 230
1861021S13446 1861 4 SI MM NOT_NAMED 1861-01-24 12:00:00 NR -22.3532 70.4472 spur-split 1325 1325 __________P___ -1 -22.3532 70.4472 7 3 227
1861021S13446 1861 4 SI MM NOT_NAMED 1861-01-24 15:00:00 NR -22.4308 70.3640 spur-split 1325 1314 __________P___ -1 -22.4308 70.3640 7 2 223
1861021S13446 1861 4 SI MM NOT_NAMED 1861-01-24 18:00:00 NR -22.5000 70.3000 spur-split 1316 1308 __________O___ -1 -22.5000 70.3000 7 2 221
1861021S13446 1861 4 SI MM NOT_NAMED 1861-01-24 21:00:00 NR -22.5950 70.2088 spur-split 1308 1299 __________P___ -1 -22.5950 70.2088 7 3 222
1861021S13446 1861 4 SI MM NOT_NAMED 1861-01-25 00:00:00 NR -22.7158 70.0888 spur-split 1299 1291 __________P___ -1 -22.7158 70.0888 7 4 223
1861021S13446 1861 4 SI MM NOT_NAMED 1861-01-25 03:00:00 NR -22.8537 69.9493 spur-split 1283 1275 __________P___ -1 -22.8537 69.9493 7 4 223
1861021S13446 1861 4 SI MM NOT_NAMED 1861-01-25 06:00:00 NR -23.0000 69.8000 spur-split 1275 __________O___ -1 -23.0000 69.8000 7 4 224

IBTrACS Databaseについて

本データベースは、米国NOAAが公開する1842年以降の世界の熱帯低気圧のベストトラックデータアーカイブInternational Best Track Archive for Climate Stewardship (IBTrACS)を、ウェブで閲覧しやすい形式に変換したものです。

最終更新日:2021-12-03